createdAt,value
2022-08-07T00:01:43.766Z,51.88
2022-08-07T00:04:09.617Z,51.87
2022-08-07T00:06:40.917Z,51.98
2022-08-07T00:09:21.403Z,51.94
2022-08-07T00:11:55.742Z,52.24
2022-08-07T00:14:30.992Z,52.18
2022-08-07T00:17:01.575Z,52.48
2022-08-07T00:20:00.481Z,52.33
2022-08-07T00:22:24.782Z,52.68
2022-08-07T00:25:07.074Z,52.52
2022-08-07T00:27:53.199Z,52.36
2022-08-07T00:30:28.002Z,52.80
2022-08-07T00:32:57.461Z,53.02
2022-08-07T00:35:29.827Z,52.59
2022-08-07T00:37:59.573Z,53.22
2022-08-07T00:40:39.604Z,53.12
2022-08-07T00:43:14.067Z,53.31
2022-08-07T00:45:59.126Z,53.11
2022-08-07T00:48:30.850Z,53.42
2022-08-07T00:51:01.177Z,53.25
2022-08-07T00:53:38.565Z,53.32
2022-08-07T00:56:15.485Z,53.29
2022-08-07T00:58:47.450Z,53.20
2022-08-07T01:01:20.362Z,53.49
2022-08-07T01:03:56.313Z,53.24
2022-08-07T01:06:30.445Z,53.55
2022-08-07T01:09:01.577Z,53.24
2022-08-07T01:12:26.567Z,53.46
2022-08-07T01:14:28.411Z,53.69
2022-08-07T01:16:58.018Z,53.50
2022-08-07T01:19:28.168Z,53.32
2022-08-07T01:22:03.437Z,53.03
2022-08-07T01:24:37.438Z,53.22
2022-08-07T01:27:06.538Z,52.94
2022-08-07T01:29:48.285Z,53.05
2022-08-07T01:32:19.457Z,53.10
2022-08-07T01:34:52.142Z,53.02
2022-08-07T01:37:22.474Z,52.51
2022-08-07T01:39:51.691Z,52.28
2022-08-07T01:42:40.263Z,52.43
2022-08-07T01:45:17.895Z,52.30
2022-08-07T01:48:18.114Z,51.66
2022-08-07T01:50:40.257Z,51.81
2022-08-07T01:53:20.989Z,51.56
2022-08-07T01:55:57.978Z,51.39
2022-08-07T01:58:33.940Z,51.23
2022-08-07T02:01:59.052Z,50.72
2022-08-07T02:04:15.498Z,50.44
2022-08-07T02:06:45.871Z,50.34
2022-08-07T02:09:33.449Z,50.35
2022-08-07T02:12:18.139Z,50.07
2022-08-07T02:14:50.906Z,50.50
2022-08-07T02:17:27.733Z,50.47
2022-08-07T02:20:05.628Z,50.08
2022-08-07T02:22:41.186Z,50.21
2022-08-07T02:25:18.093Z,50.32
2022-08-07T02:27:51.973Z,49.97
2022-08-07T02:30:21.461Z,50.30
2022-08-07T02:33:03.679Z,50.38
2022-08-07T02:36:28.340Z,50.18
2022-08-07T02:38:31.572Z,50.17
2022-08-07T02:41:03.782Z,50.20
2022-08-07T02:43:34.496Z,50.71
2022-08-07T02:46:05.967Z,50.66
2022-08-07T02:48:34.749Z,50.57
2022-08-07T02:51:28.859Z,50.98
2022-08-07T02:54:00.970Z,50.95
2022-08-07T02:56:33.468Z,50.85
2022-08-07T02:59:05.843Z,51.05
2022-08-07T03:01:36.271Z,51.21
2022-08-07T03:04:12.443Z,50.98
2022-08-07T03:06:44.835Z,51.12
2022-08-07T03:09:43.455Z,51.18
2022-08-07T03:12:06.686Z,50.97
2022-08-07T03:14:37.727Z,50.96
2022-08-07T03:17:08.761Z,51.38
2022-08-07T03:19:37.646Z,51.44
2022-08-07T03:22:07.315Z,51.35
2022-08-07T03:24:47.962Z,51.31
2022-08-07T03:27:30.890Z,51.39
2022-08-07T03:30:07.830Z,51.53
2022-08-07T03:32:49.320Z,51.25
2022-08-07T03:35:43.510Z,51.25
2022-08-07T03:38:15.209Z,51.31
2022-08-07T03:40:44.975Z,51.38
2022-08-07T03:43:23.603Z,51.34
2022-08-07T03:45:55.360Z,51.24
2022-08-07T03:48:23.931Z,51.04
2022-08-07T03:50:57.781Z,51.10
2022-08-07T03:54:00.785Z,51.11
2022-08-07T03:56:33.338Z,51.25
2022-08-07T03:59:08.527Z,51.33
2022-08-07T04:01:45.335Z,51.07
2022-08-07T04:04:17.153Z,51.14
2022-08-07T04:06:50.957Z,51.11
2022-08-07T04:09:23.200Z,51.23
2022-08-07T04:12:26.678Z,51.34
2022-08-07T04:14:47.826Z,51.29
2022-08-07T04:17:20.946Z,51.42
2022-08-07T04:19:54.472Z,51.66
2022-08-07T04:22:28.842Z,51.44
2022-08-07T04:25:01.360Z,51.66
2022-08-07T04:27:35.604Z,51.74
2022-08-07T04:30:13.359Z,51.92
2022-08-07T04:32:58.226Z,52.00
2022-08-07T04:35:27.478Z,51.92
2022-08-07T04:38:07.967Z,52.07
2022-08-07T04:40:52.088Z,51.96
2022-08-07T04:43:53.423Z,52.08
2022-08-07T04:46:29.283Z,52.10
2022-08-07T04:49:18.066Z,52.26
2022-08-07T04:52:05.326Z,51.88
2022-08-07T04:54:40.422Z,51.50
2022-08-07T04:58:10.762Z,51.62
2022-08-07T05:00:17.449Z,51.70
2022-08-07T05:03:01.441Z,51.19
2022-08-07T05:05:53.256Z,51.31
2022-08-07T05:08:59.328Z,51.24
2022-08-07T05:11:57.560Z,51.06
2022-08-07T05:14:54.220Z,50.69
2022-08-07T05:17:51.805Z,50.93
2022-08-07T05:20:12.880Z,50.97
2022-08-07T05:22:44.770Z,50.56
2022-08-07T05:25:25.892Z,50.31
2022-08-07T05:28:20.345Z,50.09
2022-08-07T05:30:53.562Z,49.46
2022-08-07T05:33:22.914Z,49.49
2022-08-07T05:35:55.096Z,49.46
2022-08-07T05:38:59.763Z,49.18
2022-08-07T05:41:16.750Z,48.99
2022-08-07T05:44:11.971Z,49.37
2022-08-07T05:46:43.022Z,49.61
2022-08-07T05:49:14.272Z,49.14
2022-08-07T05:51:46.924Z,49.50
2022-08-07T05:54:31.417Z,49.10
2022-08-07T05:57:05.621Z,48.81
2022-08-07T05:59:55.824Z,48.95
2022-08-07T06:02:30.821Z,48.86
2022-08-07T06:05:05.629Z,48.64
2022-08-07T06:08:14.236Z,48.64
2022-08-07T06:10:25.613Z,48.02
2022-08-07T06:12:54.612Z,48.31
2022-08-07T06:15:38.513Z,47.79
2022-08-07T06:18:11.066Z,47.56
2022-08-07T06:20:50.887Z,47.48
2022-08-07T06:24:38.439Z,47.48
2022-08-07T06:26:21.669Z,47.68
2022-08-07T06:29:01.086Z,47.04
2022-08-07T06:31:46.951Z,47.05
2022-08-07T06:34:20.430Z,47.28
2022-08-07T06:36:52.171Z,46.96
2022-08-07T06:40:16.345Z,46.88
2022-08-07T06:42:19.221Z,47.19
2022-08-07T06:44:51.266Z,46.61
2022-08-07T06:47:20.959Z,46.38
2022-08-07T06:49:51.625Z,45.93
2022-08-07T06:52:31.410Z,45.96
2022-08-07T06:55:31.569Z,45.35
2022-08-07T06:58:03.105Z,45.26
2022-08-07T07:00:36.752Z,45.38
2022-08-07T07:03:11.069Z,45.30
2022-08-07T07:06:04.394Z,45.40
2022-08-07T07:08:33.188Z,44.96
2022-08-07T07:11:14.008Z,44.90
2022-08-07T07:13:58.029Z,44.43
2022-08-07T07:16:39.034Z,44.15
2022-08-07T07:19:56.480Z,44.58
2022-08-07T07:22:34.104Z,43.86
2022-08-07T07:25:14.030Z,43.57
2022-08-07T07:28:03.252Z,43.45
2022-08-07T07:30:40.745Z,43.57
2022-08-07T07:33:13.923Z,42.75
2022-08-07T07:36:04.866Z,43.16
2022-08-07T07:38:36.009Z,42.52
2022-08-07T07:41:09.407Z,42.54
2022-08-07T07:44:14.567Z,42.40
2022-08-07T07:46:54.241Z,42.22
2022-08-07T07:50:35.564Z,40.54
2022-08-07T07:52:17.231Z,41.03
2022-08-07T07:54:51.429Z,39.79
2022-08-07T07:57:43.963Z,38.88
2022-08-07T08:00:28.809Z,38.10
2022-08-07T08:03:06.099Z,37.08
2022-08-07T08:05:50.504Z,36.64
2022-08-07T08:08:34.624Z,36.55
2022-08-07T08:11:16.600Z,36.66
2022-08-07T08:13:55.249Z,36.34
2022-08-07T08:18:36.900Z,35.48
2022-08-07T08:20:18.993Z,34.04
2022-08-07T08:22:36.639Z,33.39
2022-08-07T08:25:42.192Z,33.26
2022-08-07T08:28:23.772Z,33.51
2022-08-07T08:31:14.784Z,34.24
2022-08-07T08:33:55.530Z,33.13
2022-08-07T08:36:30.605Z,32.94
2022-08-07T08:39:02.626Z,33.49
2022-08-07T08:41:57.362Z,32.59
2022-08-07T08:44:41.235Z,33.38
2022-08-07T08:47:27.895Z,32.56
2022-08-07T08:50:18.996Z,31.18
2022-08-07T08:53:10.634Z,32.07
2022-08-07T08:55:55.284Z,30.99
2022-08-07T08:58:37.177Z,30.48
2022-08-07T09:01:18.662Z,30.67
2022-08-07T09:04:06.975Z,30.29
2022-08-07T09:06:47.962Z,30.91
2022-08-07T09:09:41.749Z,30.70
2022-08-07T09:12:31.284Z,30.81
2022-08-07T09:16:25.604Z,30.39
2022-08-07T09:18:37.779Z,31.06
2022-08-07T09:21:33.877Z,30.59
2022-08-07T09:24:59.654Z,30.36
2022-08-07T09:27:38.305Z,29.01
2022-08-07T09:30:28.038Z,29.19
2022-08-07T09:33:16.501Z,29.57
2022-08-07T09:36:03.839Z,29.84
2022-08-07T09:38:53.511Z,29.63
2022-08-07T09:41:36.152Z,29.73
2022-08-07T09:44:32.839Z,29.08
2022-08-07T09:47:50.579Z,29.25
2022-08-07T09:50:20.077Z,29.02
2022-08-07T09:52:53.903Z,28.76
2022-08-07T09:55:29.525Z,28.37
2022-08-07T09:58:58.828Z,28.68
2022-08-07T10:02:03.229Z,28.27
2022-08-07T10:05:12.350Z,29.30
2022-08-07T10:07:59.267Z,29.77
2022-08-07T10:11:16.509Z,29.53
2022-08-07T10:14:00.337Z,29.24
2022-08-07T10:17:01.131Z,29.51
2022-08-07T10:19:48.336Z,28.45
2022-08-07T10:22:43.266Z,28.57
2022-08-07T10:25:42.109Z,27.63
2022-08-07T10:28:30.676Z,27.22
2022-08-07T10:31:39.118Z,27.43
2022-08-07T10:34:32.144Z,27.47
2022-08-07T10:37:48.276Z,27.24
2022-08-07T10:40:16.606Z,27.11
2022-08-07T10:43:03.112Z,27.47
2022-08-07T10:45:45.385Z,26.03
2022-08-07T10:48:48.589Z,27.04
2022-08-07T10:51:57.705Z,26.92
2022-08-07T10:54:19.335Z,26.19
2022-08-07T10:57:11.770Z,27.11
2022-08-07T11:00:05.633Z,26.48
2022-08-07T11:02:41.682Z,26.19
2022-08-07T11:05:50.624Z,27.15
2022-08-07T11:08:32.568Z,26.10
2022-08-07T11:11:09.178Z,26.61
2022-08-07T11:14:45.418Z,26.39
2022-08-07T11:16:42.482Z,25.85
2022-08-07T11:19:21.737Z,26.68
2022-08-07T11:22:18.952Z,26.80
2022-08-07T11:25:18.128Z,26.29
2022-08-07T11:28:01.364Z,26.46
2022-08-07T11:30:43.906Z,26.50
2022-08-07T11:33:53.321Z,26.02
2022-08-07T11:36:32.188Z,26.09
2022-08-07T11:39:20.061Z,26.18
2022-08-07T11:42:02.827Z,26.54
2022-08-07T11:44:52.676Z,26.87
2022-08-07T11:47:55.989Z,27.52
2022-08-07T11:50:57.139Z,27.38
2022-08-07T11:53:43.276Z,27.20
2022-08-07T11:56:53.250Z,26.90
2022-08-07T12:00:10.777Z,27.04
2022-08-07T12:03:45.063Z,26.69
2022-08-07T12:06:55.385Z,27.07
2022-08-07T12:09:36.735Z,26.02
2022-08-07T12:12:12.308Z,25.93
2022-08-07T12:14:55.728Z,25.09
2022-08-07T12:17:55.899Z,25.08
2022-08-07T12:20:36.508Z,25.48
2022-08-07T12:24:04.844Z,25.26
2022-08-07T12:26:33.623Z,25.73
2022-08-07T12:29:14.438Z,25.71
2022-08-07T12:32:02.266Z,25.71
2022-08-07T12:34:38.130Z,26.28
2022-08-07T12:37:16.790Z,25.78
2022-08-07T12:39:54.506Z,26.17
2022-08-07T12:42:31.860Z,26.65
2022-08-07T12:45:10.731Z,26.38
2022-08-07T12:47:50.716Z,26.62
2022-08-07T12:50:39.080Z,26.77
2022-08-07T12:53:17.651Z,26.06
2022-08-07T12:56:03.615Z,26.27
2022-08-07T12:58:39.922Z,26.28
2022-08-07T13:01:37.237Z,26.42
2022-08-07T13:04:35.738Z,26.97
2022-08-07T13:08:13.464Z,27.15
2022-08-07T13:10:51.387Z,27.46
2022-08-07T13:13:49.096Z,27.43
2022-08-07T13:16:32.904Z,27.79
2022-08-07T13:19:35.253Z,27.09
2022-08-07T13:22:26.896Z,26.67
2022-08-07T13:25:06.016Z,26.88
2022-08-07T13:28:11.724Z,27.27
2022-08-07T13:30:40.345Z,27.24
2022-08-07T13:34:31.382Z,27.24
2022-08-07T13:36:21.018Z,26.65
2022-08-07T13:39:05.117Z,26.31
2022-08-07T13:41:47.593Z,27.50
2022-08-07T13:44:25.870Z,26.93
2022-08-07T13:46:59.349Z,26.60
2022-08-07T13:50:34.003Z,25.98
2022-08-07T13:52:38.090Z,25.96
2022-08-07T13:55:19.583Z,26.33
2022-08-07T13:58:28.067Z,26.00
2022-08-07T14:01:09.338Z,26.05
2022-08-07T14:04:05.391Z,26.73
2022-08-07T14:06:34.389Z,25.81
2022-08-07T14:09:06.433Z,25.97
2022-08-07T14:12:00.473Z,24.95
2022-08-07T14:14:41.422Z,24.90
2022-08-07T14:18:13.030Z,24.52
2022-08-07T14:20:41.760Z,24.86
2022-08-07T14:23:08.602Z,24.51
2022-08-07T14:25:45.827Z,24.16
2022-08-07T14:28:19.284Z,24.24
2022-08-07T14:30:52.081Z,24.58
2022-08-07T14:33:22.617Z,24.87
2022-08-07T14:35:57.424Z,24.60
2022-08-07T14:38:31.591Z,25.06
2022-08-07T14:44:11.555Z,25.08
2022-08-07T14:46:51.863Z,24.66
2022-08-07T14:49:58.538Z,25.04
2022-08-07T14:52:27.743Z,26.14
2022-08-07T14:55:00.687Z,25.72
2022-08-07T15:00:29.857Z,25.64
2022-08-07T15:03:19.835Z,25.59
2022-08-07T15:11:53.271Z,25.31
2022-08-07T15:14:32.290Z,25.40
2022-08-07T15:17:04.445Z,25.59
2022-08-07T15:22:33.546Z,25.40
2022-08-07T15:25:17.977Z,25.97
2022-08-07T15:28:32.146Z,26.24
2022-08-07T15:31:04.922Z,26.23
2022-08-07T15:33:36.886Z,26.15
2022-08-07T15:36:08.646Z,26.49
2022-08-07T15:38:59.277Z,27.13
2022-08-07T15:42:44.982Z,26.65
2022-08-07T15:44:24.027Z,26.84
2022-08-07T15:47:03.347Z,26.54
2022-08-07T15:50:05.069Z,26.81
2022-08-07T15:52:38.227Z,27.00
2022-08-07T15:55:12.368Z,27.24
2022-08-07T15:57:48.435Z,26.88
2022-08-07T16:00:31.336Z,27.27
2022-08-07T16:03:21.761Z,27.38
2022-08-07T16:06:01.529Z,27.10
2022-08-07T16:08:38.813Z,27.24
2022-08-07T16:11:26.616Z,27.30
2022-08-07T16:14:10.709Z,27.21
2022-08-07T16:17:14.821Z,27.15
2022-08-07T16:20:33.676Z,26.77
2022-08-07T16:23:53.905Z,26.96
2022-08-07T16:26:34.143Z,26.90
2022-08-07T16:30:06.674Z,26.95
2022-08-07T16:32:33.218Z,27.11
2022-08-07T16:35:51.447Z,27.71
2022-08-07T16:39:00.675Z,28.12
2022-08-07T16:41:54.022Z,28.34
2022-08-07T16:45:14.132Z,28.41
2022-08-07T16:48:28.724Z,27.89
2022-08-07T16:51:54.405Z,28.53
2022-08-07T16:54:34.735Z,29.02
2022-08-07T16:58:00.762Z,28.91
2022-08-07T17:00:17.378Z,29.82
2022-08-07T17:03:17.771Z,29.85
2022-08-07T17:06:29.958Z,30.15
2022-08-07T17:09:14.179Z,30.81
2022-08-07T17:12:44.455Z,30.23
2022-08-07T17:15:05.271Z,30.38
2022-08-07T17:17:53.270Z,30.26
2022-08-07T17:20:32.967Z,30.41
2022-08-07T17:23:16.728Z,30.53
2022-08-07T17:26:01.733Z,30.68
2022-08-07T17:28:38.487Z,30.70
2022-08-07T17:31:24.901Z,31.44
2022-08-07T17:34:19.831Z,31.26
2022-08-07T17:36:59.952Z,31.43
2022-08-07T17:39:58.878Z,31.63
2022-08-07T17:42:59.797Z,31.59
2022-08-07T17:45:35.315Z,32.17
2022-08-07T17:48:12.641Z,33.38
2022-08-07T17:51:01.552Z,32.75
2022-08-07T17:54:00.751Z,32.61
2022-08-07T17:56:36.624Z,33.15
2022-08-07T17:59:24.696Z,34.02
2022-08-07T18:02:05.663Z,34.03
2022-08-07T18:04:43.786Z,33.96
2022-08-07T18:07:43.675Z,33.62
2022-08-07T18:10:32.000Z,33.89
2022-08-07T18:13:23.093Z,34.11
2022-08-07T18:16:05.079Z,34.51
2022-08-07T18:21:02.429Z,34.95
2022-08-07T18:21:58.142Z,35.28
2022-08-07T18:24:34.280Z,35.47
2022-08-07T18:27:39.126Z,35.54
2022-08-07T18:30:32.412Z,36.31
2022-08-07T18:33:55.465Z,35.78
2022-08-07T18:36:35.940Z,36.10
2022-08-07T18:40:06.373Z,35.97
2022-08-07T18:42:18.709Z,35.97
2022-08-07T18:45:43.048Z,36.26
2022-08-07T18:48:01.399Z,36.49
2022-08-07T18:50:59.133Z,36.66
2022-08-07T18:53:48.631Z,36.61
2022-08-07T18:56:37.635Z,36.70
2022-08-07T18:59:46.732Z,36.47
2022-08-07T19:02:42.444Z,37.33
2022-08-07T19:06:02.483Z,37.44
2022-08-07T19:08:22.289Z,37.55
2022-08-07T19:10:55.404Z,37.78
2022-08-07T19:13:35.007Z,37.67
2022-08-07T19:17:04.303Z,38.09
2022-08-07T19:19:04.831Z,38.38
2022-08-07T19:21:56.877Z,38.57
2022-08-07T19:24:44.339Z,38.77
2022-08-07T19:28:56.895Z,39.06
2022-08-07T19:30:55.946Z,38.96
2022-08-07T19:33:10.198Z,39.30
2022-08-07T19:35:43.965Z,39.53
2022-08-07T19:38:17.651Z,39.51
2022-08-07T19:40:50.797Z,39.80
2022-08-07T19:43:46.085Z,39.73
2022-08-07T19:46:17.906Z,39.55
2022-08-07T19:48:53.492Z,39.78
2022-08-07T19:51:50.707Z,39.71
2022-08-07T19:54:35.607Z,39.52
2022-08-07T19:58:01.099Z,39.94
2022-08-07T20:00:08.858Z,39.94
2022-08-07T20:02:53.490Z,39.99
2022-08-07T20:05:28.083Z,39.81
2022-08-07T20:08:02.611Z,40.14
2022-08-07T20:10:55.074Z,40.09
2022-08-07T20:13:32.917Z,40.13
2022-08-07T20:16:04.515Z,40.31
2022-08-07T20:18:34.862Z,40.62
2022-08-07T20:21:21.190Z,40.56
2022-08-07T20:23:54.738Z,40.85
2022-08-07T20:26:32.692Z,41.27
2022-08-07T20:29:16.984Z,41.54
2022-08-07T20:32:11.423Z,41.61
2022-08-07T20:34:53.035Z,41.85
2022-08-07T20:37:25.442Z,41.96
2022-08-07T20:40:02.268Z,42.08
2022-08-07T20:42:35.938Z,42.36
2022-08-07T20:45:33.491Z,42.27
2022-08-07T20:47:58.629Z,42.22
2022-08-07T20:50:30.540Z,42.30
2022-08-07T20:52:59.828Z,42.84
2022-08-07T20:55:32.045Z,42.81
2022-08-07T20:58:12.248Z,42.62
2022-08-07T21:00:56.148Z,42.71
2022-08-07T21:03:26.963Z,42.98
2022-08-07T21:06:00.876Z,42.96
2022-08-07T21:08:38.246Z,42.70
2022-08-07T21:11:14.213Z,42.86
2022-08-07T21:14:29.401Z,43.00
2022-08-07T21:16:46.795Z,43.03
2022-08-07T21:19:32.131Z,43.20
2022-08-07T21:22:19.046Z,43.03
2022-08-07T21:25:12.980Z,43.16
2022-08-07T21:28:04.159Z,43.11
2022-08-07T21:30:46.767Z,42.94
2022-08-07T21:33:23.166Z,42.96
2022-08-07T21:36:05.652Z,42.78
2022-08-07T21:38:54.455Z,42.98
2022-08-07T21:41:38.285Z,42.79
2022-08-07T21:44:30.594Z,43.10
2022-08-07T21:47:17.338Z,42.99
2022-08-07T21:50:02.348Z,43.25
2022-08-07T21:52:45.220Z,43.12
2022-08-07T21:55:29.904Z,43.36
2022-08-07T21:58:30.027Z,43.43
2022-08-07T22:01:08.492Z,43.65
2022-08-07T22:03:49.359Z,44.02
2022-08-07T22:06:29.999Z,44.00
2022-08-07T22:10:14.477Z,44.04
2022-08-07T22:12:49.885Z,44.22
2022-08-07T22:16:40.948Z,44.58
2022-08-07T22:18:25.516Z,44.60
2022-08-07T22:21:01.672Z,44.62
2022-08-07T22:23:41.984Z,44.60
2022-08-07T22:26:25.855Z,44.63
2022-08-07T22:29:02.739Z,44.74
2022-08-07T22:31:56.306Z,44.78
2022-08-07T22:34:39.987Z,44.35
2022-08-07T22:38:03.212Z,44.76
2022-08-07T22:40:29.044Z,44.86
2022-08-07T22:43:13.656Z,45.12
2022-08-07T22:47:01.866Z,44.68
2022-08-07T22:49:37.904Z,45.20
2022-08-07T22:52:37.523Z,45.35
2022-08-07T22:55:48.491Z,45.08
2022-08-07T22:58:43.246Z,45.37
2022-08-07T23:02:00.708Z,45.37
2022-08-07T23:04:57.933Z,45.38
2022-08-07T23:07:55.108Z,45.75
2022-08-07T23:10:42.041Z,45.72
2022-08-07T23:13:48.991Z,45.52
2022-08-07T23:16:55.281Z,45.98
2022-08-07T23:19:59.864Z,45.91
2022-08-07T23:22:43.329Z,46.23
2022-08-07T23:25:29.685Z,46.35
2022-08-07T23:28:22.923Z,45.95
2022-08-07T23:32:49.445Z,46.30
2022-08-07T23:34:46.375Z,45.97
2022-08-07T23:38:01.672Z,46.50
2022-08-07T23:40:37.509Z,46.24
2022-08-07T23:43:44.991Z,46.39
2022-08-07T23:46:50.767Z,46.45
2022-08-07T23:49:53.324Z,46.31
2022-08-07T23:53:05.211Z,46.61
2022-08-07T23:55:46.958Z,46.55
2022-08-07T23:58:36.265Z,46.94
